createdAt,value
2018-03-19T00:01:05.046Z,3.43
2018-03-19T00:06:07.816Z,3.23
2018-03-19T00:11:11.312Z,2.60
2018-03-19T00:16:13.853Z,3.70
2018-03-19T00:21:17.432Z,3.20
2018-03-19T00:26:20.504Z,2.90
2018-03-19T00:31:23.605Z,3.60
2018-03-19T00:36:26.294Z,2.70
2018-03-19T00:41:29.329Z,3.10
2018-03-19T00:46:31.902Z,2.73
2018-03-19T00:51:34.450Z,2.80
2018-03-19T00:56:36.990Z,2.87
2018-03-19T01:01:39.664Z,3.10
2018-03-19T01:06:42.959Z,3.20
2018-03-19T01:11:45.480Z,3.20
2018-03-19T01:16:49.296Z,2.57
2018-03-19T01:21:52.644Z,2.73
2018-03-19T01:26:55.449Z,2.97
2018-03-19T01:31:58.012Z,2.80
2018-03-19T01:37:00.540Z,3.30
2018-03-19T01:42:04.517Z,3.07
2018-03-19T01:47:07.029Z,3.00
2018-03-19T01:52:10.308Z,3.10
2018-03-19T01:57:13.373Z,2.60
2018-03-19T02:02:15.972Z,2.67
2018-03-19T02:07:18.535Z,2.90
2018-03-19T02:12:21.816Z,3.13
2018-03-19T02:17:24.843Z,2.30
2018-03-19T02:22:27.347Z,2.80
2018-03-19T02:27:30.732Z,2.60
2018-03-19T02:32:33.271Z,2.80
2018-03-19T02:37:35.815Z,2.40
2018-03-19T02:42:38.491Z,2.80
2018-03-19T02:47:41.056Z,2.30
2018-03-19T02:52:43.591Z,2.60
2018-03-19T02:57:46.124Z,2.40
2018-03-19T03:02:49.787Z,2.10
2018-03-19T03:07:52.322Z,2.37
2018-03-19T03:12:55.151Z,2.90
2018-03-19T03:17:57.711Z,2.13
2018-03-19T03:23:01.058Z,2.80
2018-03-19T03:28:03.580Z,2.73
2018-03-19T03:33:06.315Z,3.23
2018-03-19T03:38:09.453Z,2.37
2018-03-19T03:43:12.386Z,2.50
2018-03-19T03:48:15.156Z,2.70
2018-03-19T03:53:19.218Z,2.73
2018-03-19T03:58:22.011Z,2.27
2018-03-19T04:03:24.539Z,1.97
2018-03-19T04:08:27.096Z,2.37
2018-03-19T04:13:29.629Z,2.00
2018-03-19T04:18:32.190Z,1.80
2018-03-19T04:23:34.899Z,2.40
2018-03-19T04:28:37.557Z,2.23
2018-03-19T04:33:40.112Z,2.30
2018-03-19T04:38:42.606Z,3.10
2018-03-19T04:43:45.691Z,2.30
2018-03-19T04:48:49.210Z,2.20
2018-03-19T04:53:52.453Z,2.70
2018-03-19T04:58:56.375Z,2.00
2018-03-19T05:03:58.931Z,3.30
2018-03-19T05:09:01.488Z,2.00
2018-03-19T05:14:04.990Z,2.50
2018-03-19T05:19:07.504Z,2.40
2018-03-19T05:24:10.806Z,1.80
2018-03-19T05:29:13.416Z,1.60
2018-03-19T05:34:15.921Z,2.03
2018-03-19T05:39:19.001Z,2.10
2018-03-19T05:44:21.523Z,1.93
2018-03-19T05:49:24.078Z,2.20
2018-03-19T05:54:26.666Z,2.13
2018-03-19T05:59:29.705Z,2.73
2018-03-19T06:04:32.367Z,2.10
2018-03-19T06:09:35.303Z,1.73
2018-03-19T06:14:38.776Z,1.80
2018-03-19T06:19:41.412Z,1.60
2018-03-19T06:24:44.718Z,1.70
2018-03-19T06:29:48.051Z,1.50
2018-03-19T06:34:51.083Z,1.67
2018-03-19T06:39:53.611Z,1.73
2018-03-19T06:44:58.135Z,1.90
2018-03-19T06:50:00.680Z,1.73
2018-03-19T06:55:03.263Z,1.70
2018-03-19T07:00:05.945Z,2.40
2018-03-19T07:05:08.983Z,2.20
2018-03-19T07:10:11.492Z,1.60
2018-03-19T07:15:14.031Z,2.43
2018-03-19T07:20:17.052Z,1.93
2018-03-19T07:25:20.897Z,2.00
2018-03-19T07:30:23.678Z,2.10
2018-03-19T07:35:26.755Z,1.60
2018-03-19T07:40:29.497Z,1.70
2018-03-19T07:45:32.344Z,1.87
2018-03-19T07:50:35.105Z,1.73
2018-03-19T07:55:37.664Z,1.60
2018-03-19T08:00:40.766Z,1.37
2018-03-19T08:05:43.312Z,1.73
2018-03-19T08:10:45.838Z,1.60
2018-03-19T08:15:48.378Z,1.97
2018-03-19T08:20:51.949Z,1.80
2018-03-19T08:25:54.716Z,3.30
2018-03-19T08:30:57.238Z,1.77
2018-03-19T08:35:59.853Z,1.57
2018-03-19T08:41:03.415Z,1.70
2018-03-19T08:46:06.551Z,1.30
2018-03-19T08:51:10.516Z,1.40
2018-03-19T08:56:14.536Z,1.50
2018-03-19T09:01:18.668Z,1.20
2018-03-19T09:06:21.801Z,1.80
2018-03-19T09:11:24.846Z,1.73
2018-03-19T09:16:28.092Z,2.00
2018-03-19T09:21:32.150Z,1.90
2018-03-19T09:26:36.035Z,2.50
2018-03-19T09:31:39.931Z,1.60
2018-03-19T09:36:42.482Z,1.80
2018-03-19T09:41:45.021Z,2.40
2018-03-19T09:46:48.397Z,1.30
2018-03-19T09:51:51.676Z,2.17
2018-03-19T09:56:54.333Z,3.43
2018-03-19T10:01:56.984Z,3.43
2018-03-19T10:06:59.537Z,3.40
2018-03-19T10:12:02.130Z,3.50
2018-03-19T10:17:05.043Z,4.03
2018-03-19T10:22:08.468Z,3.30
2018-03-19T10:27:10.997Z,4.20
2018-03-19T10:32:14.316Z,3.87
2018-03-19T10:37:16.980Z,4.80
2018-03-19T10:42:20.512Z,3.93
2018-03-19T10:47:23.332Z,4.37
2018-03-19T10:52:26.073Z,3.43
2018-03-19T10:57:28.625Z,3.77
2018-03-19T11:02:33.104Z,5.50
2018-03-19T11:07:41.356Z,4.07
2018-03-19T11:12:44.294Z,4.50
2018-03-19T11:17:46.883Z,5.03
2018-03-19T11:22:49.513Z,3.93
2018-03-19T11:27:52.496Z,3.60
2018-03-19T11:32:55.125Z,3.73
2018-03-19T11:37:57.800Z,3.30
2018-03-19T11:43:00.417Z,3.40
2018-03-19T11:48:04.164Z,3.23
2018-03-19T11:53:06.908Z,3.67
2018-03-19T11:58:09.471Z,2.60
2018-03-19T12:03:12.055Z,3.00
2018-03-19T12:08:14.600Z,2.87
2018-03-19T12:13:17.587Z,2.30
2018-03-19T12:18:20.111Z,2.37
2018-03-19T12:23:22.970Z,2.40
2018-03-19T12:28:26.300Z,2.53
2018-03-19T12:33:28.998Z,2.33
2018-03-19T12:38:31.512Z,2.20
2018-03-19T12:43:34.130Z,1.60
2018-03-19T12:48:36.717Z,2.10
2018-03-19T12:53:39.759Z,1.90
2018-03-19T12:58:42.881Z,2.07
2018-03-19T13:03:45.632Z,2.20
2018-03-19T13:08:48.193Z,2.10
2018-03-19T13:13:51.625Z,2.57
2018-03-19T13:18:54.359Z,2.57
2018-03-19T13:23:57.409Z,2.07
2018-03-19T13:29:00.700Z,1.90
2018-03-19T13:34:04.331Z,1.93
2018-03-19T13:39:07.404Z,1.40
2018-03-19T13:44:10.868Z,1.50
2018-03-19T13:49:13.589Z,1.77
2018-03-19T13:54:16.175Z,1.83
2018-03-19T13:59:19.394Z,1.93
2018-03-19T14:04:22.178Z,2.07
2018-03-19T14:09:25.248Z,1.87
2018-03-19T14:14:27.992Z,1.77
2018-03-19T14:19:30.611Z,1.93
2018-03-19T14:24:33.126Z,1.83
2018-03-19T14:29:35.773Z,2.00
2018-03-19T14:34:38.459Z,2.33
2018-03-19T14:39:42.403Z,1.60
2018-03-19T14:44:45.320Z,1.80
2018-03-19T14:49:48.382Z,2.17
2018-03-19T14:54:51.357Z,1.87
2018-03-19T14:59:54.147Z,1.40
2018-03-19T15:04:57.059Z,2.10
2018-03-19T15:09:59.704Z,1.90
2018-03-19T15:15:02.299Z,1.90
2018-03-19T15:20:05.967Z,1.90
2018-03-19T15:25:08.896Z,2.27
2018-03-19T15:30:11.505Z,1.90
2018-03-19T15:35:15.020Z,1.90
2018-03-19T15:40:17.615Z,1.70
2018-03-19T15:45:21.769Z,1.70
2018-03-19T15:50:24.560Z,1.80
2018-03-19T15:55:27.380Z,1.90
2018-03-19T16:00:30.133Z,1.67
2018-03-19T16:05:33.003Z,1.90
2018-03-19T16:10:35.851Z,1.60
2018-03-19T16:15:38.490Z,1.97
2018-03-19T16:20:41.299Z,1.97
2018-03-19T16:25:43.976Z,2.00
2018-03-19T16:30:46.514Z,2.13
2018-03-19T16:35:49.100Z,2.10
2018-03-19T16:40:51.883Z,2.27
2018-03-19T16:45:54.485Z,2.00
2018-03-19T16:50:57.802Z,1.83
2018-03-19T16:56:01.362Z,2.17
2018-03-19T17:01:04.144Z,1.93
2018-03-19T17:06:07.580Z,2.13
2018-03-19T17:11:10.225Z,2.53
2018-03-19T17:16:12.865Z,2.50
2018-03-19T17:21:15.795Z,2.00
2018-03-19T17:26:18.349Z,2.20
2018-03-19T17:31:21.703Z,1.70
2018-03-19T17:36:24.371Z,1.87
2018-03-19T17:41:27.884Z,2.13
2018-03-19T17:46:32.077Z,1.77
2018-03-19T17:51:35.643Z,1.70
2018-03-19T17:56:38.238Z,1.90
2018-03-19T18:01:40.971Z,1.90
2018-03-19T18:06:43.718Z,2.30
2018-03-19T18:11:46.514Z,1.90
2018-03-19T18:16:49.134Z,2.00
2018-03-19T18:21:51.718Z,1.70
2018-03-19T18:26:54.405Z,2.00
2018-03-19T18:31:56.949Z,1.57
2018-03-19T18:36:59.533Z,1.90
2018-03-19T18:42:02.148Z,1.63
2018-03-19T18:47:04.698Z,1.90
2018-03-19T18:52:07.384Z,1.80
2018-03-19T18:57:09.929Z,2.20
2018-03-19T19:02:13.145Z,1.90
2018-03-19T19:07:15.911Z,2.10
2018-03-19T19:12:18.625Z,2.50
2018-03-19T19:17:22.779Z,2.60
2018-03-19T19:22:25.368Z,2.03
2018-03-19T19:27:27.943Z,2.93
2018-03-19T19:32:30.701Z,2.93
2018-03-19T19:37:36.344Z,3.20
2018-03-19T19:42:38.989Z,3.10
2018-03-19T19:47:41.777Z,2.87
2018-03-19T19:52:44.655Z,2.67
2018-03-19T19:57:47.491Z,2.97
2018-03-19T20:02:50.099Z,3.40
2018-03-19T20:07:52.671Z,2.63
2018-03-19T20:12:55.610Z,3.07
2018-03-19T20:17:58.347Z,3.90
2018-03-19T20:23:01.763Z,3.80
2018-03-19T20:28:05.163Z,3.83
2018-03-19T20:33:07.696Z,4.07
2018-03-19T20:38:10.259Z,3.20
2018-03-19T20:43:13.849Z,4.00
2018-03-19T20:48:17.893Z,3.80
2018-03-19T20:53:20.731Z,4.00
2018-03-19T20:58:24.182Z,3.60
2018-03-19T21:03:27.714Z,5.27
2018-03-19T21:08:31.576Z,3.30
2018-03-19T21:13:34.207Z,3.50
2018-03-19T21:18:37.490Z,3.00
2018-03-19T21:23:42.839Z,4.30
2018-03-19T21:28:46.877Z,4.10
2018-03-19T21:33:50.314Z,3.70
2018-03-19T21:38:54.393Z,4.07
2018-03-19T21:43:57.429Z,4.33
2018-03-19T21:49:02.960Z,4.77
2018-03-19T21:54:05.899Z,3.90
2018-03-19T21:59:10.962Z,4.90
2018-03-19T22:04:13.862Z,4.00
2018-03-19T22:09:18.808Z,4.10
2018-03-19T22:14:21.812Z,4.27
2018-03-19T22:19:25.463Z,4.17
2018-03-19T22:24:28.127Z,4.33
2018-03-19T22:29:31.437Z,4.40
2018-03-19T22:34:34.681Z,3.63
2018-03-19T22:39:37.820Z,4.47
2018-03-19T22:44:40.581Z,3.87
2018-03-19T22:49:43.379Z,3.40
2018-03-19T22:54:46.962Z,3.67
2018-03-19T22:59:50.849Z,4.60
2018-03-19T23:10:33.407Z,3.37
2018-03-19T23:15:40.368Z,3.53
2018-03-19T23:20:43.214Z,3.70
2018-03-19T23:25:45.860Z,3.90
2018-03-19T23:30:48.607Z,4.03
2018-03-19T23:35:51.203Z,4.33
2018-03-19T23:40:54.756Z,4.00
2018-03-19T23:45:57.386Z,3.97
2018-03-19T23:51:00.182Z,4.13
2018-03-19T23:56:02.843Z,4.43
